Historique des mesures à Cassis (13260), France
Quotidien Résumé Janvier 12, 2018 Unités:  Métrique/US    US   Métrique
« Précédent (Jour)
Suivant (Jour) »
Quotidien Hebdomadaire Mensuel Annuel Période au choix
  Maximum: Minimum: Moyenne:
Température: TemperatureC °F /  -17.8 °C 7.9 °F /  -13.4 °C 9.7 °F /  -12.4 °C
Point de rosée: DewpointC °F /  -17.8 °C 1.2 °F /  -17.1 °C 2.8 °F /  -16.2 °C
Humidité: Humidity % 51 % 58 %
Vitesse du vent: WindSpeedKMH mph /  0 km/h - 3.7 mph /  6 km/h
Rafales: WindSpeedGustKMH mph /  0 km/h - -
Vent:- - WNW
Pression: PressurehPa in /  0 hPa 1010.4 in /  34212.1 hPa -
Précipitations: 0.0 in /  0 mm    
Historical Graphs
 
 
Mesures pour : Janvier 12, 2018
Heure Temperature Point de rosée Pression Vent Vitesse du vent Rafales Humidité Pluie (par heure) Conditions
TemperatureC °F /  -17.8 °C DewpointC °F /  -17.8 °C PressurehPa in /  0 hPa Calm     Humidity % HourlyPrecipMM in /  0 mm SoftwareType W/m2
00:12 9.3 °F /  -12.6 °C 3.1 °F /  -16.1 °C 1010.4 in /  34212.1 hPa NNW 6.1 mph /  9.8 km/h 9.3 mph /  15 km/h 65 % 0.0 in /  0 mm open2300-1.11 W/m2
01:12 8.4 °F /  -13.1 °C 2.6 °F /  -16.3 °C 1010.7 in /  34222.3 hPa WNW 10.5 mph /  16.9 km/h 10.5 mph /  16.9 km/h 67 % 0.0 in /  0 mm open2300-1.11 W/m2
02:12 8.4 °F /  -13.1 °C 2.2 °F /  -16.6 °C 1010.7 in /  34222.3 hPa NNW 4.3 mph /  6.9 km/h 4.3 mph /  6.9 km/h 65 % 0.0 in /  0 mm open2300-1.11 W/m2
03:12 8.9 °F /  -12.8 °C 2.2 °F /  -16.6 °C 1011.1 in /  34235.8 hPa WNW 6.8 mph /  10.9 km/h 10.1 mph /  16.3 km/h 63 % 0.0 in /  0 mm open2300-1.11 W/m2
04:12 8.6 °F /  -13 °C 1.9 °F /  -16.7 °C 1011.4 in /  34246 hPa NW 2.1 mph /  3.4 km/h 4.7 mph /  7.6 km/h 63 % 0.0 in /  0 mm open2300-1.11 W/m2
05:12 7.9 °F /  -13.4 °C 1.9 °F /  -16.7 °C 1011.7 in /  34256.2 hPa Calm   1.1 mph /  1.8 km/h 66 % 0.0 in /  0 mm open2300-1.11 W/m2
07:12 8.6 °F /  -13 °C 1.3 °F /  -17.1 °C 1012.1 in /  34269.7 hPa NNW 8.2 mph /  13.2 km/h 10.1 mph /  16.3 km/h 60 % 0.0 in /  0 mm open2300-1.11 W/m2
08:12 8.5 °F /  -13.1 °C 1.2 °F /  -17.1 °C 1012.8 in /  34293.4 hPa NNW 6.1 mph /  9.8 km/h 6.1 mph /  9.8 km/h 60 % 0.0 in /  0 mm open2300-1.11 W/m2
09:12 9.5 °F /  -12.5 °C 1.4 °F /  -17 °C 1013.4 in /  34313.7 hPa Calm   6.8 mph /  10.9 km/h 57 % 0.0 in /  0 mm open2300-1.11 W/m2
10:12 9.8 °F /  -12.3 °C 1.7 °F /  -16.8 °C 1014.1 in /  34337.4 hPa Calm   5.8 mph /  9.3 km/h 57 % 0.0 in /  0 mm open2300-1.11 W/m2
11:12 10.9 °F /  -11.7 °C 2.2 °F /  -16.6 °C 1014.4 in /  34347.6 hPa NNE 1.1 mph /  1.8 km/h 4.7 mph /  7.6 km/h 55 % 0.0 in /  0 mm open2300-1.11 W/m2
12:12 12.1 °F /  -11.1 °C 2.2 °F /  -16.6 °C 1014.1 in /  34337.4 hPa Calm   2.9 mph /  4.7 km/h 51 % 0.0 in /  0 mm open2300-1.11 W/m2
13:12 12.3 °F /  -10.9 °C 3.7 °F /  -15.7 °C 1014.1 in /  34337.4 hPa WNW 16.6 mph /  26.7 km/h 16.6 mph /  26.7 km/h 56 % 0.0 in /  0 mm open2300-1.11 W/m2
14:12 12.9 °F /  -10.6 °C 4.0 °F /  -15.6 °C 1014.1 in /  34337.4 hPa West 6.4 mph /  10.3 km/h 6.4 mph /  10.3 km/h 55 % 0.0 in /  0 mm open2300-1.11 W/m2
15:12 13.2 °F /  -10.4 °C 4.3 °F /  -15.4 °C 1014.1 in /  34337.4 hPa NNW 6.4 mph /  10.3 km/h 13.4 mph /  21.6 km/h 55 % 0.0 in /  0 mm open2300-1.11 W/m2
17:12 12.1 °F /  -11.1 °C 4.6 °F /  -15.2 °C 1015.1 in /  34371.3 hPa West 2.9 mph /  4.7 km/h 2.9 mph /  4.7 km/h 60 % 0.0 in /  0 mm open2300-1.11 W/m2
18:12 11.3 °F /  -11.5 °C 4.3 °F /  -15.4 °C 1015.1 in /  34371.3 hPa WNW 1.1 mph /  1.8 km/h 1.8 mph /  2.9 km/h 62 % 0.0 in /  0 mm open2300-1.11 W/m2
19:12 10.9 °F /  -11.7 °C 4.1 °F /  -15.5 °C 1015.8 in /  34395 hPa Calm     63 % 0.0 in /  0 mm open2300-1.11 W/m2
20:12 10.8 °F /  -11.8 °C 4.0 °F /  -15.6 °C 1015.8 in /  34395 hPa Calm     63 % 0.0 in /  0 mm open2300-1.11 W/m2
21:12 10.4 °F /  -12 °C 3.8 °F /  -15.7 °C 1016.5 in /  34418.7 hPa NNW 6.1 mph /  9.8 km/h 6.1 mph /  9.8 km/h 64 % 0.0 in /  0 mm open2300-1.11 W/m2
22:12 9.9 °F /  -12.3 °C 3.6 °F /  -15.8 °C 1016.8 in /  34428.8 hPa Calm     65 % 0.0 in /  0 mm open2300-1.11 W/m2
23:12 9.4 °F /  -12.6 °C 3.3 °F /  -15.9 °C 1017.2 in /  34442.4 hPa Calm     66 % 0.0 in /  0 mm open2300-1.11 W/m2
Observations météo à CASSIS
WU-History script by Weather Underground - 1 mb